| time (UTC) | temp F | wind direction | speed MPH | gust MPH | rain 1hr in | rain 24hr in | rain mn in | humidity % | barometer mb |
| 20260503004605 | 55 | 210 | 4.0 | 0.0 | 0.00 | 0.00 | 0.00 | 54 | 1015.0 |
| 20260503002600 | 52 | 220 | 4.0 | 0.0 | 0.00 | 0.00 | 0.00 | 62 | 1015.0 |
| 20260503001557 | 52 | 220 | 4.0 | 0.0 | 0.00 | 0.00 | 0.00 | 62 | 1015.0 |
| 20260502235551 | 48 | 210 | 4.0 | 0.0 | 0.00 | 0.00 | 0.00 | 71 | 1015.0 |
| 20260502234548 | 48 | 210 | 4.0 | 0.0 | 0.00 | 0.00 | 0.00 | 71 | 1015.0 |
| 20260502232542 | 48 | 210 | 2.0 | 0.0 | 0.00 | 0.00 | 0.00 | 71 | 1016.0 |
| 20260502231539 | 48 | 210 | 2.0 | 0.0 | 0.00 | 0.00 | 0.00 | 71 | 1016.0 |
| 20260502225534 | 48 | 0 | 0.0 | 0.0 | 0.00 | 0.00 | 0.00 | 66 | 1016.0 |
| 20260502224531 | 48 | 0 | 0.0 | 0.0 | 0.00 | 0.00 | 0.00 | 66 | 1016.0 |
| 20260502222526 | 50 | 200 | 2.0 | 0.0 | 0.00 | 0.00 | 0.00 | 62 | 1016.0 |
| 20260502221522 | 50 | 200 | 2.0 | 0.0 | 0.00 | 0.00 | 0.00 | 62 | 1016.0 |
| 20260502215517 | 48 | 0 | 0.0 | 0.0 | 0.00 | 0.00 | 0.00 | 66 | 1016.0 |
| 20260502214514 | 48 | 0 | 0.0 | 0.0 | 0.00 | 0.00 | 0.00 | 66 | 1016.0 |
| 20260502212509 | 50 | 0 | 0.0 | 0.0 | 0.00 | 0.00 | 0.00 | 62 | 1016.0 |
| 20260502211506 | 50 | 0 | 0.0 | 0.0 | 0.00 | 0.00 | 0.00 | 62 | 1016.0 |
| 20260502210503 | 52 | 250 | 2.0 | 0.0 | 0.00 | 0.00 | 0.00 | 58 | 1016.0 |
| 20260502205500 | 52 | 250 | 2.0 | 0.0 | 0.00 | 0.00 | 0.00 | 58 | 1016.0 |
| 20260502204457 | 52 | 250 | 2.0 | 0.0 | 0.00 | 0.00 | 0.00 | 58 | 1016.0 |
| 20260502203453 | 52 | 0 | 0.0 | 0.0 | 0.00 | 0.00 | 0.00 | 54 | 1016.0 |
| 20260502202450 | 52 | 0 | 0.0 | 0.0 | 0.00 | 0.00 | 0.00 | 54 | 1016.0 |
| 20260502201446 | 52 | 0 | 0.0 | 0.0 | 0.00 | 0.00 | 0.00 | 54 | 1016.0 |
| 20260502200442 | 55 | 0 | 0.0 | 0.0 | 0.00 | 0.00 | 0.00 | 47 | 1016.0 |
| 20260502195439 | 55 | 0 | 0.0 | 0.0 | 0.00 | 0.00 | 0.00 | 47 | 1016.0 |
| 20260502194436 | 55 | 0 | 0.0 | 0.0 | 0.00 | 0.00 | 0.00 | 47 | 1016.0 |
| 20260502193433 | 55 | 0 | 0.0 | 0.0 | 0.00 | 0.00 | 0.00 | 47 | 1016.0 |
| 20260502192430 | 55 | 0 | 0.0 | 0.0 | 0.00 | 0.00 | 0.00 | 47 | 1016.0 |
| 20260502191427 | 55 | 0 | 0.0 | 0.0 | 0.00 | 0.00 | 0.00 | 47 | 1016.0 |
| 20260502190423 | 59 | 330 | 2.0 | 0.0 | 0.00 | 0.00 | 0.00 | 39 | 1016.0 |
| 20260502185420 | 59 | 330 | 2.0 | 0.0 | 0.00 | 0.00 | 0.00 | 39 | 1016.0 |
| 20260502184417 | 59 | 330 | 2.0 | 0.0 | 0.00 | 0.00 | 0.00 | 39 | 1016.0 |
| 20260502183415 | 61 | 340 | 4.0 | 0.0 | 0.00 | 0.00 | 0.00 | 36 | 1016.0 |
| 20260502182412 | 61 | 340 | 4.0 | 0.0 | 0.00 | 0.00 | 0.00 | 36 | 1016.0 |
| 20260502181409 | 61 | 340 | 4.0 | 0.0 | 0.00 | 0.00 | 0.00 | 36 | 1016.0 |
| 20260502180406 | 63 | 350 | 4.0 | 0.0 | 0.00 | 0.00 | 0.00 | 34 | 1016.0 |
| 20260502170346 | 64 | 360 | 8.0 | 0.0 | 0.00 | 0.00 | 0.00 | 34 | 1017.0 |
| 20260502164339 | 64 | 360 | 8.0 | 0.0 | 0.00 | 0.00 | 0.00 | 34 | 1017.0 |
| 20260502163334 | 66 | 360 | 8.0 | 0.0 | 0.00 | 0.00 | 0.00 | 34 | 1017.0 |
| 20260502162330 | 66 | 360 | 8.0 | 0.0 | 0.00 | 0.00 | 0.00 | 34 | 1017.0 |
| 20260502161325 | 66 | 360 | 8.0 | 0.0 | 0.00 | 0.00 | 0.00 | 34 | 1017.0 |
| 20260502160321 | 70 | 350 | 10.0 | 0.0 | 0.00 | 0.00 | 0.00 | 33 | 1018.0 |
| 20260502152309 | 79 | 310 | 8.0 | 0.0 | 0.00 | 0.00 | 0.00 | 24 | 1018.0 |
| 20260502151304 | 79 | 310 | 8.0 | 0.0 | 0.00 | 0.00 | 0.00 | 24 | 1018.0 |
| 20260502150259 | 81 | 240 | 8.0 | 0.0 | 0.00 | 0.00 | 0.00 | 17 | 1018.0 |
| 20260502123125 | 79 | 220 | 8.0 | 0.0 | 0.00 | 0.00 | 0.00 | 18 | 1020.0 |
| 20260502122115 | 79 | 220 | 8.0 | 0.0 | 0.00 | 0.00 | 0.00 | 18 | 1020.0 |
| 20260502121113 | 79 | 220 | 8.0 | 0.0 | 0.00 | 0.00 | 0.00 | 18 | 1020.0 |
| 20260502120110 | 79 | 200 | 8.0 | 0.0 | 0.00 | 0.00 | 0.00 | 20 | 1020.0 |
| 20260502115106 | 79 | 200 | 8.0 | 0.0 | 0.00 | 0.00 | 0.00 | 20 | 1020.0 |
| 20260502114103 | 79 | 200 | 8.0 | 0.0 | 0.00 | 0.00 | 0.00 | 20 | 1020.0 |
| 20260502113059 | 77 | 250 | 2.0 | 0.0 | 0.00 | 0.00 | 0.00 | 21 | 1021.0 |
| 20260502112057 | 77 | 250 | 2.0 | 0.0 | 0.00 | 0.00 | 0.00 | 21 | 1021.0 |
| 20260502111053 | 77 | 250 | 2.0 | 0.0 | 0.00 | 0.00 | 0.00 | 21 | 1021.0 |
| 20260502110050 | 75 | 70 | 2.0 | 0.0 | 0.00 | 0.00 | 0.00 | 24 | 1021.0 |
| 20260502105047 | 75 | 70 | 2.0 | 0.0 | 0.00 | 0.00 | 0.00 | 24 | 1021.0 |
| 20260502104045 | 75 | 70 | 2.0 | 0.0 | 0.00 | 0.00 | 0.00 | 24 | 1021.0 |
| 20260502103040 | 75 | 130 | 4.0 | 0.0 | 0.00 | 0.00 | 0.00 | 27 | 1021.0 |
| 20260502102038 | 75 | 130 | 4.0 | 0.0 | 0.00 | 0.00 | 0.00 | 27 | 1021.0 |
| 20260502101035 | 75 | 130 | 4.0 | 0.0 | 0.00 | 0.00 | 0.00 | 27 | 1021.0 |
| 20260502091016 | 73 | 160 | 4.0 | 0.0 | 0.00 | 0.00 | 0.00 | 29 | 1022.0 |
| 20260502042900 | 48 | 240 | 4.0 | 0.0 | 0.00 | 0.00 | 0.00 | 57 | 1023.0 |
| 20260502040854 | 48 | 240 | 4.0 | 0.0 | 0.00 | 0.00 | 0.00 | 57 | 1023.0 |
| 20260502035851 | 45 | 250 | 2.0 | 0.0 | 0.00 | 0.00 | 0.00 | 61 | 1023.0 |
| 20260502034848 | 45 | 250 | 2.0 | 0.0 | 0.00 | 0.00 | 0.00 | 61 | 1023.0 |
| 20260502033845 | 45 | 250 | 2.0 | 0.0 | 0.00 | 0.00 | 0.00 | 61 | 1023.0 |
| 20260502032842 | 45 | 260 | 2.0 | 0.0 | 0.00 | 0.00 | 0.00 | 61 | 1023.0 |
| 20260502031839 | 45 | 260 | 2.0 | 0.0 | 0.00 | 0.00 | 0.00 | 61 | 1023.0 |
| 20260502030836 | 45 | 260 | 2.0 | 0.0 | 0.00 | 0.00 | 0.00 | 61 | 1023.0 |
| 20260502025833 | 45 | 0 | 0.0 | 0.0 | 0.00 | 0.00 | 0.00 | 61 | 1023.0 |
| 20260502024830 | 45 | 0 | 0.0 | 0.0 | 0.00 | 0.00 | 0.00 | 61 | 1023.0 |
| 20260502023827 | 45 | 0 | 0.0 | 0.0 | 0.00 | 0.00 | 0.00 | 61 | 1023.0 |
| 20260502022825 | 48 | 240 | 2.0 | 0.0 | 0.00 | 0.00 | 0.00 | 53 | 1023.0 |
| 20260502021822 | 48 | 240 | 2.0 | 0.0 | 0.00 | 0.00 | 0.00 | 53 | 1023.0 |
| 20260502020819 | 48 | 240 | 2.0 | 0.0 | 0.00 | 0.00 | 0.00 | 53 | 1023.0 |
| 20260502015816 | 52 | 240 | 4.0 | 0.0 | 0.00 | 0.00 | 0.00 | 47 | 1023.0 |
| 20260502014813 | 52 | 240 | 4.0 | 0.0 | 0.00 | 0.00 | 0.00 | 47 | 1023.0 |
| 20260502013811 | 52 | 240 | 4.0 | 0.0 | 0.00 | 0.00 | 0.00 | 47 | 1023.0 |
| 20260502012808 | 54 | 240 | 6.0 | 0.0 | 0.00 | 0.00 | 0.00 | 44 | 1023.0 |
| 20260502011805 | 54 | 240 | 6.0 | 0.0 | 0.00 | 0.00 | 0.00 | 44 | 1023.0 |
| 20260502010802 | 54 | 240 | 6.0 | 0.0 | 0.00 | 0.00 | 0.00 | 44 | 1023.0 |
| 20260502005759 | 50 | 250 | 6.0 | 0.0 | 0.00 | 0.00 | 0.00 | 50 | 1024.0 |